sensor_id;sensor_type;location;lat;lon;timestamp;temperature;humidity
8595;DHT22;4335;48.860;9.198;2023-10-13T00:00:29;18.00;99.90
8595;DHT22;4335;48.860;9.198;2023-10-13T00:03:02;17.90;99.90
8595;DHT22;4335;48.860;9.198;2023-10-13T00:05:30;18.00;99.90
8595;DHT22;4335;48.860;9.198;2023-10-13T00:07:59;17.90;99.90
8595;DHT22;4335;48.860;9.198;2023-10-13T00:10:29;17.90;99.90
8595;DHT22;4335;48.860;9.198;2023-10-13T00:12:57;17.90;99.90
8595;DHT22;4335;48.860;9.198;2023-10-13T00:15:39;17.80;99.90
8595;DHT22;4335;48.860;9.198;2023-10-13T00:18:10;17.80;99.90
8595;DHT22;4335;48.860;9.198;2023-10-13T00:20:46;17.80;99.90
8595;DHT22;4335;48.860;9.198;2023-10-13T00:23:15;17.70;99.90
8595;DHT22;4335;48.860;9.198;2023-10-13T00:25:52;17.70;99.90
8595;DHT22;4335;48.860;9.198;2023-10-13T00:28:26;17.60;99.90
8595;DHT22;4335;48.860;9.198;2023-10-13T00:31:08;17.60;99.90
8595;DHT22;4335;48.860;9.198;2023-10-13T00:33:40;17.50;99.90
8595;DHT22;4335;48.860;9.198;2023-10-13T00:36:08;17.50;99.90
8595;DHT22;4335;48.860;9.198;2023-10-13T00:38:42;17.40;99.90
8595;DHT22;4335;48.860;9.198;2023-10-13T00:41:21;17.40;99.90
8595;DHT22;4335;48.860;9.198;2023-10-13T00:44:08;17.30;99.90
8595;DHT22;4335;48.860;9.198;2023-10-13T00:46:35;17.20;99.90
8595;DHT22;4335;48.860;9.198;2023-10-13T00:49:07;17.20;99.90
8595;DHT22;4335;48.860;9.198;2023-10-13T00:51:38;17.20;99.90
8595;DHT22;4335;48.860;9.198;2023-10-13T00:54:08;17.10;99.90
8595;DHT22;4335;48.860;9.198;2023-10-13T00:56:39;17.00;99.90
8595;DHT22;4335;48.860;9.198;2023-10-13T00:59:18;17.00;99.90
8595;DHT22;4335;48.860;9.198;2023-10-13T01:01:52;16.90;99.90
8595;DHT22;4335;48.860;9.198;2023-10-13T01:04:21;17.00;99.90
8595;DHT22;4335;48.860;9.198;2023-10-13T01:06:57;16.90;99.90
8595;DHT22;4335;48.860;9.198;2023-10-13T01:09:25;16.90;99.90
8595;DHT22;4335;48.860;9.198;2023-10-13T01:11:51;16.90;99.90
8595;DHT22;4335;48.860;9.198;2023-10-13T01:14:22;16.80;99.90
8595;DHT22;4335;48.860;9.198;2023-10-13T01:16:56;16.80;99.90
8595;DHT22;4335;48.860;9.198;2023-10-13T01:19:27;16.80;99.90
8595;DHT22;4335;48.860;9.198;2023-10-13T01:21:58;16.80;99.90
8595;DHT22;4335;48.860;9.198;2023-10-13T01:24:28;16.80;99.90
8595;DHT22;4335;48.860;9.198;2023-10-13T01:26:57;16.80;99.90
8595;DHT22;4335;48.860;9.198;2023-10-13T01:29:35;16.80;99.90
8595;DHT22;4335;48.860;9.198;2023-10-13T01:32:06;16.80;99.90
8595;DHT22;4335;48.860;9.198;2023-10-13T01:34:41;16.80;99.90
8595;DHT22;4335;48.860;9.198;2023-10-13T01:37:12;16.80;99.90
8595;DHT22;4335;48.860;9.198;2023-10-13T01:39:42;16.80;99.90
8595;DHT22;4335;48.860;9.198;2023-10-13T01:42:16;16.80;99.90
8595;DHT22;4335;48.860;9.198;2023-10-13T01:44:45;16.80;99.90
8595;DHT22;4335;48.860;9.198;2023-10-13T01:47:18;16.80;99.90
8595;DHT22;4335;48.860;9.198;2023-10-13T01:49:44;16.70;99.90
8595;DHT22;4335;48.860;9.198;2023-10-13T01:52:13;16.60;99.90
8595;DHT22;4335;48.860;9.198;2023-10-13T01:54:42;16.70;99.90
8595;DHT22;4335;48.860;9.198;2023-10-13T01:57:10;16.70;99.90
8595;DHT22;4335;48.860;9.198;2023-10-13T01:59:43;16.70;99.90
8595;DHT22;4335;48.860;9.198;2023-10-13T02:02:10;16.70;99.90
8595;DHT22;4335;48.860;9.198;2023-10-13T02:04:42;16.60;99.90
8595;DHT22;4335;48.860;9.198;2023-10-13T02:07:14;16.60;99.90
8595;DHT22;4335;48.860;9.198;2023-10-13T02:09:45;16.60;99.90
8595;DHT22;4335;48.860;9.198;2023-10-13T02:12:23;16.60;99.90
8595;DHT22;4335;48.860;9.198;2023-10-13T02:15:01;16.60;99.90
8595;DHT22;4335;48.860;9.198;2023-10-13T02:17:30;16.50;99.90
8595;DHT22;4335;48.860;9.198;2023-10-13T02:20:07;16.60;99.90
8595;DHT22;4335;48.860;9.198;2023-10-13T02:22:40;16.60;99.90
8595;DHT22;4335;48.860;9.198;2023-10-13T02:25:15;16.60;99.90
8595;DHT22;4335;48.860;9.198;2023-10-13T02:27:46;16.70;99.90
8595;DHT22;4335;48.860;9.198;2023-10-13T02:30:24;16.70;99.90
8595;DHT22;4335;48.860;9.198;2023-10-13T02:32:54;16.70;99.90
8595;DHT22;4335;48.860;9.198;2023-10-13T02:35:21;16.60;99.90
8595;DHT22;4335;48.860;9.198;2023-10-13T02:37:57;16.70;99.90
8595;DHT22;4335;48.860;9.198;2023-10-13T02:40:36;16.60;99.90
8595;DHT22;4335;48.860;9.198;2023-10-13T02:43:02;16.60;99.90
8595;DHT22;4335;48.860;9.198;2023-10-13T02:45:36;16.60;99.90
8595;DHT22;4335;48.860;9.198;2023-10-13T02:48:03;16.60;99.90
8595;DHT22;4335;48.860;9.198;2023-10-13T02:50:43;16.60;99.90
8595;DHT22;4335;48.860;9.198;2023-10-13T02:53:14;16.60;99.90
8595;DHT22;4335;48.860;9.198;2023-10-13T02:55:57;16.50;99.90
8595;DHT22;4335;48.860;9.198;2023-10-13T02:58:30;16.50;99.90
8595;DHT22;4335;48.860;9.198;2023-10-13T03:01:07;16.50;99.90
8595;DHT22;4335;48.860;9.198;2023-10-13T03:03:44;16.50;99.90
8595;DHT22;4335;48.860;9.198;2023-10-13T03:06:14;16.50;99.90
8595;DHT22;4335;48.860;9.198;2023-10-13T03:08:41;16.40;99.90
8595;DHT22;4335;48.860;9.198;2023-10-13T03:11:10;16.40;99.90
8595;DHT22;4335;48.860;9.198;2023-10-13T03:13:37;16.40;99.90
8595;DHT22;4335;48.860;9.198;2023-10-13T03:16:11;16.40;99.90
8595;DHT22;4335;48.860;9.198;2023-10-13T03:18:44;16.40;99.90
8595;DHT22;4335;48.860;9.198;2023-10-13T03:21:25;16.40;99.90
8595;DHT22;4335;48.860;9.198;2023-10-13T03:24:05;16.40;99.90
8595;DHT22;4335;48.860;9.198;2023-10-13T03:26:33;16.40;99.90
8595;DHT22;4335;48.860;9.198;2023-10-13T03:29:04;16.30;99.90
8595;DHT22;4335;48.860;9.198;2023-10-13T03:31:39;16.30;99.90
8595;DHT22;4335;48.860;9.198;2023-10-13T03:34:05;16.30;99.90
8595;DHT22;4335;48.860;9.198;2023-10-13T03:36:42;16.30;99.90
8595;DHT22;4335;48.860;9.198;2023-10-13T03:39:27;16.20;99.90
8595;DHT22;4335;48.860;9.198;2023-10-13T03:42:02;16.20;99.90
8595;DHT22;4335;48.860;9.198;2023-10-13T03:44:31;16.10;99.90
8595;DHT22;4335;48.860;9.198;2023-10-13T03:46:58;16.10;99.90
8595;DHT22;4335;48.860;9.198;2023-10-13T03:49:44;16.10;99.90
8595;DHT22;4335;48.860;9.198;2023-10-13T03:52:22;16.10;99.90
8595;DHT22;4335;48.860;9.198;2023-10-13T03:54:54;16.00;99.90
8595;DHT22;4335;48.860;9.198;2023-10-13T03:57:21;16.00;99.90
8595;DHT22;4335;48.860;9.198;2023-10-13T03:59:53;16.00;99.90
8595;DHT22;4335;48.860;9.198;2023-10-13T04:02:25;16.00;99.90
8595;DHT22;4335;48.860;9.198;2023-10-13T04:04:53;16.00;99.90
8595;DHT22;4335;48.860;9.198;2023-10-13T04:07:26;15.90;99.90
8595;DHT22;4335;48.860;9.198;2023-10-13T04:10:11;15.90;99.90
8595;DHT22;4335;48.860;9.198;2023-10-13T04:12:56;15.90;99.90
8595;DHT22;4335;48.860;9.198;2023-10-13T04:15:44;15.90;99.90
8595;DHT22;4335;48.860;9.198;2023-10-13T04:18:28;15.90;99.90
8595;DHT22;4335;48.860;9.198;2023-10-13T04:21:15;15.90;99.90
8595;DHT22;4335;48.860;9.198;2023-10-13T04:24:09;15.90;99.90
8595;DHT22;4335;48.860;9.198;2023-10-13T04:26:58;15.90;99.90
8595;DHT22;4335;48.860;9.198;2023-10-13T04:29:40;15.90;99.90
8595;DHT22;4335;48.860;9.198;2023-10-13T04:32:17;15.90;99.90
8595;DHT22;4335;48.860;9.198;2023-10-13T04:34:54;15.90;99.90
8595;DHT22;4335;48.860;9.198;2023-10-13T04:37:24;15.90;99.90
8595;DHT22;4335;48.860;9.198;2023-10-13T04:39:55;15.90;99.90
8595;DHT22;4335;48.860;9.198;2023-10-13T04:42:25;15.90;99.90
8595;DHT22;4335;48.860;9.198;2023-10-13T04:45:17;15.90;99.90
8595;DHT22;4335;48.860;9.198;2023-10-13T04:48:05;16.00;99.90
8595;DHT22;4335;48.860;9.198;2023-10-13T04:50:59;15.90;99.90
8595;DHT22;4335;48.860;9.198;2023-10-13T04:53:46;15.90;99.90
8595;DHT22;4335;48.860;9.198;2023-10-13T04:56:40;15.90;99.90
8595;DHT22;4335;48.860;9.198;2023-10-13T04:59:25;15.90;99.90
8595;DHT22;4335;48.860;9.198;2023-10-13T05:02:10;15.90;99.90
8595;DHT22;4335;48.860;9.198;2023-10-13T05:05:12;15.90;99.90
8595;DHT22;4335;48.860;9.198;2023-10-13T05:07:56;15.80;99.90
8595;DHT22;4335;48.860;9.198;2023-10-13T05:10:44;15.80;99.90
8595;DHT22;4335;48.860;9.198;2023-10-13T05:13:28;15.80;99.90
8595;DHT22;4335;48.860;9.198;2023-10-13T05:16:15;15.80;99.90
8595;DHT22;4335;48.860;9.198;2023-10-13T05:19:00;15.80;99.90
8595;DHT22;4335;48.860;9.198;2023-10-13T05:21:48;15.80;99.90
8595;DHT22;4335;48.860;9.198;2023-10-13T05:24:33;15.80;99.90
8595;DHT22;4335;48.860;9.198;2023-10-13T05:27:23;15.80;99.90
8595;DHT22;4335;48.860;9.198;2023-10-13T05:30:09;15.80;99.90
8595;DHT22;4335;48.860;9.198;2023-10-13T05:33:03;15.70;99.90
8595;DHT22;4335;48.860;9.198;2023-10-13T05:35:49;15.70;99.90
8595;DHT22;4335;48.860;9.198;2023-10-13T05:38:33;15.70;99.90
8595;DHT22;4335;48.860;9.198;2023-10-13T05:41:18;15.60;99.90
8595;DHT22;4335;48.860;9.198;2023-10-13T05:44:02;15.60;99.90
8595;DHT22;4335;48.860;9.198;2023-10-13T05:46:52;15.60;99.90
8595;DHT22;4335;48.860;9.198;2023-10-13T05:49:59;15.60;99.90
8595;DHT22;4335;48.860;9.198;2023-10-13T05:52:32;15.60;99.90
8595;DHT22;4335;48.860;9.198;2023-10-13T05:55:20;15.70;99.90
8595;DHT22;4335;48.860;9.198;2023-10-13T05:58:07;15.80;99.90
8595;DHT22;4335;48.860;9.198;2023-10-13T06:00:52;15.90;99.90
8595;DHT22;4335;48.860;9.198;2023-10-13T06:03:41;16.10;99.90
8595;DHT22;4335;48.860;9.198;2023-10-13T06:06:28;16.20;99.90
8595;DHT22;4335;48.860;9.198;2023-10-13T06:09:23;16.30;99.90
8595;DHT22;4335;48.860;9.198;2023-10-13T06:12:10;16.40;99.90
8595;DHT22;4335;48.860;9.198;2023-10-13T06:14:55;16.50;99.90
8595;DHT22;4335;48.860;9.198;2023-10-13T06:17:39;16.50;99.90
8595;DHT22;4335;48.860;9.198;2023-10-13T06:20:27;16.60;99.90
8595;DHT22;4335;48.860;9.198;2023-10-13T06:23:11;16.60;99.90
8595;DHT22;4335;48.860;9.198;2023-10-13T06:26:03;16.70;99.90
8595;DHT22;4335;48.860;9.198;2023-10-13T06:28:50;16.70;99.90
8595;DHT22;4335;48.860;9.198;2023-10-13T06:31:23;16.70;99.90
8595;DHT22;4335;48.860;9.198;2023-10-13T06:33:51;16.70;99.90
8595;DHT22;4335;48.860;9.198;2023-10-13T06:36:21;16.80;99.90
8595;DHT22;4335;48.860;9.198;2023-10-13T06:38:48;16.80;99.90
8595;DHT22;4335;48.860;9.198;2023-10-13T06:41:22;16.90;99.90
8595;DHT22;4335;48.860;9.198;2023-10-13T06:43:59;16.90;99.90
8595;DHT22;4335;48.860;9.198;2023-10-13T06:46:31;17.00;99.90
8595;DHT22;4335;48.860;9.198;2023-10-13T06:48:59;17.10;99.90
8595;DHT22;4335;48.860;9.198;2023-10-13T06:51:42;17.10;99.90
8595;DHT22;4335;48.860;9.198;2023-10-13T06:54:09;17.20;99.90
8595;DHT22;4335;48.860;9.198;2023-10-13T06:56:45;17.30;99.90
8595;DHT22;4335;48.860;9.198;2023-10-13T06:59:13;17.30;99.90
8595;DHT22;4335;48.860;9.198;2023-10-13T07:01:43;17.30;99.90
8595;DHT22;4335;48.860;9.198;2023-10-13T07:04:11;17.30;99.90
8595;DHT22;4335;48.860;9.198;2023-10-13T07:06:41;17.30;99.90
8595;DHT22;4335;48.860;9.198;2023-10-13T07:09:14;17.30;99.90
8595;DHT22;4335;48.860;9.198;2023-10-13T07:12:06;17.30;99.90
8595;DHT22;4335;48.860;9.198;2023-10-13T07:14:51;17.30;99.90
8595;DHT22;4335;48.860;9.198;2023-10-13T07:17:30;17.40;99.90
8595;DHT22;4335;48.860;9.198;2023-10-13T07:20:07;17.40;99.90
8595;DHT22;4335;48.860;9.198;2023-10-13T07:22:41;17.40;99.90
8595;DHT22;4335;48.860;9.198;2023-10-13T07:25:20;17.40;99.90
8595;DHT22;4335;48.860;9.198;2023-10-13T07:27:55;17.40;99.90
8595;DHT22;4335;48.860;9.198;2023-10-13T07:30:26;17.50;99.90
8595;DHT22;4335;48.860;9.198;2023-10-13T07:32:53;17.50;99.90
8595;DHT22;4335;48.860;9.198;2023-10-13T07:35:23;17.50;99.90
8595;DHT22;4335;48.860;9.198;2023-10-13T07:37:50;17.60;99.90
8595;DHT22;4335;48.860;9.198;2023-10-13T07:40:20;17.60;99.90
8595;DHT22;4335;48.860;9.198;2023-10-13T07:43:08;17.70;99.90
8595;DHT22;4335;48.860;9.198;2023-10-13T07:45:39;17.70;99.90
8595;DHT22;4335;48.860;9.198;2023-10-13T07:48:07;17.80;99.90
8595;DHT22;4335;48.860;9.198;2023-10-13T07:50:39;17.90;99.90
8595;DHT22;4335;48.860;9.198;2023-10-13T07:53:06;18.00;99.90
8595;DHT22;4335;48.860;9.198;2023-10-13T07:55:48;18.00;99.90
8595;DHT22;4335;48.860;9.198;2023-10-13T07:58:20;18.00;99.90
8595;DHT22;4335;48.860;9.198;2023-10-13T08:00:54;18.10;99.90
8595;DHT22;4335;48.860;9.198;2023-10-13T08:03:35;18.20;99.90
8595;DHT22;4335;48.860;9.198;2023-10-13T08:06:10;18.30;99.90
8595;DHT22;4335;48.860;9.198;2023-10-13T08:08:47;18.40;99.90
8595;DHT22;4335;48.860;9.198;2023-10-13T08:11:22;18.40;99.90
8595;DHT22;4335;48.860;9.198;2023-10-13T08:13:54;18.50;99.90
8595;DHT22;4335;48.860;9.198;2023-10-13T08:16:25;18.60;99.90
8595;DHT22;4335;48.860;9.198;2023-10-13T08:19:11;18.70;99.90
8595;DHT22;4335;48.860;9.198;2023-10-13T08:21:41;18.70;99.90
8595;DHT22;4335;48.860;9.198;2023-10-13T08:24:18;18.80;99.90
8595;DHT22;4335;48.860;9.198;2023-10-13T08:27:02;18.90;99.90
8595;DHT22;4335;48.860;9.198;2023-10-13T08:29:45;19.00;99.90
8595;DHT22;4335;48.860;9.198;2023-10-13T08:32:32;19.00;99.90
8595;DHT22;4335;48.860;9.198;2023-10-13T08:35:26;19.20;99.90
8595;DHT22;4335;48.860;9.198;2023-10-13T08:38:03;19.30;99.90
8595;DHT22;4335;48.860;9.198;2023-10-13T08:40:51;19.30;99.90
8595;DHT22;4335;48.860;9.198;2023-10-13T08:43:39;19.40;99.90
8595;DHT22;4335;48.860;9.198;2023-10-13T08:46:11;19.50;99.90
8595;DHT22;4335;48.860;9.198;2023-10-13T08:48:57;19.60;99.90
8595;DHT22;4335;48.860;9.198;2023-10-13T08:51:48;19.70;99.90
8595;DHT22;4335;48.860;9.198;2023-10-13T08:54:16;19.90;99.90
8595;DHT22;4335;48.860;9.198;2023-10-13T08:56:47;20.00;99.90
8595;DHT22;4335;48.860;9.198;2023-10-13T08:59:24;20.20;99.90
8595;DHT22;4335;48.860;9.198;2023-10-13T09:02:14;20.40;99.90
8595;DHT22;4335;48.860;9.198;2023-10-13T09:04:43;20.50;99.90
8595;DHT22;4335;48.860;9.198;2023-10-13T09:07:11;20.60;99.90
8595;DHT22;4335;48.860;9.198;2023-10-13T09:09:55;20.70;99.90
8595;DHT22;4335;48.860;9.198;2023-10-13T09:12:37;20.90;99.90
8595;DHT22;4335;48.860;9.198;2023-10-13T09:15:29;21.10;99.90
8595;DHT22;4335;48.860;9.198;2023-10-13T09:18:11;21.30;99.90
8595;DHT22;4335;48.860;9.198;2023-10-13T09:21:04;21.40;99.90
8595;DHT22;4335;48.860;9.198;2023-10-13T09:23:57;21.50;99.90
8595;DHT22;4335;48.860;9.198;2023-10-13T09:26:38;21.50;99.90
8595;DHT22;4335;48.860;9.198;2023-10-13T09:29:14;21.60;99.90
8595;DHT22;4335;48.860;9.198;2023-10-13T09:31:44;21.60;99.90
8595;DHT22;4335;48.860;9.198;2023-10-13T09:34:19;21.70;99.90
8595;DHT22;4335;48.860;9.198;2023-10-13T09:36:47;21.80;99.90
8595;DHT22;4335;48.860;9.198;2023-10-13T09:39:16;21.90;99.90
8595;DHT22;4335;48.860;9.198;2023-10-13T09:41:58;22.00;99.90
8595;DHT22;4335;48.860;9.198;2023-10-13T09:44:28;22.10;99.90
8595;DHT22;4335;48.860;9.198;2023-10-13T09:47:01;22.20;99.90
8595;DHT22;4335;48.860;9.198;2023-10-13T09:49:41;22.40;99.90
8595;DHT22;4335;48.860;9.198;2023-10-13T09:52:15;22.90;99.90
8595;DHT22;4335;48.860;9.198;2023-10-13T09:55:05;24.50;99.90
8595;DHT22;4335;48.860;9.198;2023-10-13T09:57:39;26.80;98.20
8595;DHT22;4335;48.860;9.198;2023-10-13T10:00:20;29.30;92.00
8595;DHT22;4335;48.860;9.198;2023-10-13T10:03:06;31.40;80.50
8595;DHT22;4335;48.860;9.198;2023-10-13T10:05:42;33.00;65.00
8595;DHT22;4335;48.860;9.198;2023-10-13T10:08:26;34.50;58.60
8595;DHT22;4335;48.860;9.198;2023-10-13T10:11:07;35.90;53.50
8595;DHT22;4335;48.860;9.198;2023-10-13T10:13:53;36.50;49.60
8595;DHT22;4335;48.860;9.198;2023-10-13T10:16:39;36.80;45.90
8595;DHT22;4335;48.860;9.198;2023-10-13T10:19:21;37.70;44.80
8595;DHT22;4335;48.860;9.198;2023-10-13T10:21:49;37.90;43.30
8595;DHT22;4335;48.860;9.198;2023-10-13T10:24:21;38.10;42.30
8595;DHT22;4335;48.860;9.198;2023-10-13T10:26:56;37.80;41.40
8595;DHT22;4335;48.860;9.198;2023-10-13T10:29:23;37.10;41.70
8595;DHT22;4335;48.860;9.198;2023-10-13T10:31:52;35.90;41.40
8595;DHT22;4335;48.860;9.198;2023-10-13T10:34:19;34.80;42.70
8595;DHT22;4335;48.860;9.198;2023-10-13T10:36:55;33.70;42.60
8595;DHT22;4335;48.860;9.198;2023-10-13T10:39:33;32.40;45.60
8595;DHT22;4335;48.860;9.198;2023-10-13T10:42:11;31.30;46.30
8595;DHT22;4335;48.860;9.198;2023-10-13T10:44:53;31.10;48.30
8595;DHT22;4335;48.860;9.198;2023-10-13T10:47:21;30.80;48.10
8595;DHT22;4335;48.860;9.198;2023-10-13T10:49:57;31.00;48.40
8595;DHT22;4335;48.860;9.198;2023-10-13T10:52:32;31.40;47.90
8595;DHT22;4335;48.860;9.198;2023-10-13T10:55:03;31.40;47.90
8595;DHT22;4335;48.860;9.198;2023-10-13T10:57:33;31.00;47.60
8595;DHT22;4335;48.860;9.198;2023-10-13T11:00:04;30.60;48.00
8595;DHT22;4335;48.860;9.198;2023-10-13T11:02:38;30.20;49.60
8595;DHT22;4335;48.860;9.198;2023-10-13T11:05:06;29.50;50.30
8595;DHT22;4335;48.860;9.198;2023-10-13T11:07:45;29.00;51.10
8595;DHT22;4335;48.860;9.198;2023-10-13T11:10:15;28.30;52.70
8595;DHT22;4335;48.860;9.198;2023-10-13T11:12:56;27.70;54.60
8595;DHT22;4335;48.860;9.198;2023-10-13T11:15:22;27.00;55.50
8595;DHT22;4335;48.860;9.198;2023-10-13T11:17:59;26.70;56.90
8595;DHT22;4335;48.860;9.198;2023-10-13T11:20:26;26.30;57.50
8595;DHT22;4335;48.860;9.198;2023-10-13T11:23:00;25.90;58.50
8595;DHT22;4335;48.860;9.198;2023-10-13T11:25:31;25.70;59.50
8595;DHT22;4335;48.860;9.198;2023-10-13T11:28:11;25.60;60.10
8595;DHT22;4335;48.860;9.198;2023-10-13T11:30:46;25.40;60.30
8595;DHT22;4335;48.860;9.198;2023-10-13T11:33:19;25.20;60.50
8595;DHT22;4335;48.860;9.198;2023-10-13T11:35:49;25.00;62.10
8595;DHT22;4335;48.860;9.198;2023-10-13T11:38:28;25.00;62.60
8595;DHT22;4335;48.860;9.198;2023-10-13T11:41:04;24.80;63.70
8595;DHT22;4335;48.860;9.198;2023-10-13T11:43:42;24.70;64.20
8595;DHT22;4335;48.860;9.198;2023-10-13T11:46:20;24.60;64.50
8595;DHT22;4335;48.860;9.198;2023-10-13T11:49:02;24.70;64.60
8595;DHT22;4335;48.860;9.198;2023-10-13T11:51:43;24.80;64.30
8595;DHT22;4335;48.860;9.198;2023-10-13T11:54:20;25.00;62.80
8595;DHT22;4335;48.860;9.198;2023-10-13T11:56:52;25.00;63.30
8595;DHT22;4335;48.860;9.198;2023-10-13T11:59:18;25.00;64.80
8595;DHT22;4335;48.860;9.198;2023-10-13T12:01:46;25.10;63.10
8595;DHT22;4335;48.860;9.198;2023-10-13T12:04:31;25.10;62.40
8595;DHT22;4335;48.860;9.198;2023-10-13T12:07:06;25.10;62.20
8595;DHT22;4335;48.860;9.198;2023-10-13T12:09:45;25.00;63.40
8595;DHT22;4335;48.860;9.198;2023-10-13T12:12:29;24.90;63.00
8595;DHT22;4335;48.860;9.198;2023-10-13T12:14:57;24.90;62.40
8595;DHT22;4335;48.860;9.198;2023-10-13T12:17:25;24.90;63.30
8595;DHT22;4335;48.860;9.198;2023-10-13T12:19:57;24.80;64.80
8595;DHT22;4335;48.860;9.198;2023-10-13T12:22:27;24.70;64.60
8595;DHT22;4335;48.860;9.198;2023-10-13T12:24:57;24.70;64.00
8595;DHT22;4335;48.860;9.198;2023-10-13T12:27:24;24.80;63.40
8595;DHT22;4335;48.860;9.198;2023-10-13T12:30:04;24.90;62.60
8595;DHT22;4335;48.860;9.198;2023-10-13T12:32:33;24.80;63.70
8595;DHT22;4335;48.860;9.198;2023-10-13T12:35:03;24.80;64.50
8595;DHT22;4335;48.860;9.198;2023-10-13T12:37:56;24.80;65.10
8595;DHT22;4335;48.860;9.198;2023-10-13T12:40:31;24.70;64.80
8595;DHT22;4335;48.860;9.198;2023-10-13T12:43:24;24.60;65.90
8595;DHT22;4335;48.860;9.198;2023-10-13T12:46:17;24.60;65.30
8595;DHT22;4335;48.860;9.198;2023-10-13T12:49:02;24.60;64.10
8595;DHT22;4335;48.860;9.198;2023-10-13T12:51:43;24.80;64.50
8595;DHT22;4335;48.860;9.198;2023-10-13T12:54:19;24.80;65.10
8595;DHT22;4335;48.860;9.198;2023-10-13T12:56:53;24.80;66.90
8595;DHT22;4335;48.860;9.198;2023-10-13T12:59:23;24.90;65.70
8595;DHT22;4335;48.860;9.198;2023-10-13T13:01:58;25.20;64.90
8595;DHT22;4335;48.860;9.198;2023-10-13T13:04:31;25.30;63.50
8595;DHT22;4335;48.860;9.198;2023-10-13T13:07:02;25.50;63.90
8595;DHT22;4335;48.860;9.198;2023-10-13T13:09:29;25.60;63.50
8595;DHT22;4335;48.860;9.198;2023-10-13T13:12:00;25.50;63.80
8595;DHT22;4335;48.860;9.198;2023-10-13T13:14:27;25.40;64.30
8595;DHT22;4335;48.860;9.198;2023-10-13T13:16:57;25.30;65.10
8595;DHT22;4335;48.860;9.198;2023-10-13T13:19:33;25.20;65.40
8595;DHT22;4335;48.860;9.198;2023-10-13T13:22:08;25.30;64.70
8595;DHT22;4335;48.860;9.198;2023-10-13T13:24:38;25.20;64.80
8595;DHT22;4335;48.860;9.198;2023-10-13T13:27:10;25.30;63.80
8595;DHT22;4335;48.860;9.198;2023-10-13T13:29:45;25.20;64.30
8595;DHT22;4335;48.860;9.198;2023-10-13T13:32:17;25.20;65.40
8595;DHT22;4335;48.860;9.198;2023-10-13T13:34:48;25.00;65.20
8595;DHT22;4335;48.860;9.198;2023-10-13T13:37:20;25.10;63.70
8595;DHT22;4335;48.860;9.198;2023-10-13T13:39:47;25.00;65.20
8595;DHT22;4335;48.860;9.198;2023-10-13T13:42:14;24.90;64.10
8595;DHT22;4335;48.860;9.198;2023-10-13T13:44:43;25.00;63.70
8595;DHT22;4335;48.860;9.198;2023-10-13T13:47:13;25.30;60.50
8595;DHT22;4335;48.860;9.198;2023-10-13T13:49:43;25.20;62.30
8595;DHT22;4335;48.860;9.198;2023-10-13T13:52:16;25.10;63.00
8595;DHT22;4335;48.860;9.198;2023-10-13T13:54:47;25.20;60.40
8595;DHT22;4335;48.860;9.198;2023-10-13T13:57:17;25.20;61.40
8595;DHT22;4335;48.860;9.198;2023-10-13T13:59:44;25.00;62.90
8595;DHT22;4335;48.860;9.198;2023-10-13T14:02:11;25.00;61.70
8595;DHT22;4335;48.860;9.198;2023-10-13T14:04:46;24.90;63.30
8595;DHT22;4335;48.860;9.198;2023-10-13T14:07:12;24.80;62.20
8595;DHT22;4335;48.860;9.198;2023-10-13T14:09:53;24.90;61.70
8595;DHT22;4335;48.860;9.198;2023-10-13T14:12:33;24.80;62.70
8595;DHT22;4335;48.860;9.198;2023-10-13T14:15:09;24.70;63.50
8595;DHT22;4335;48.860;9.198;2023-10-13T14:17:46;24.80;63.50
8595;DHT22;4335;48.860;9.198;2023-10-13T14:20:15;24.80;62.40
8595;DHT22;4335;48.860;9.198;2023-10-13T14:22:44;24.80;63.00
8595;DHT22;4335;48.860;9.198;2023-10-13T14:25:13;24.70;62.90
8595;DHT22;4335;48.860;9.198;2023-10-13T14:27:41;24.70;63.30
8595;DHT22;4335;48.860;9.198;2023-10-13T14:30:08;24.80;61.10
8595;DHT22;4335;48.860;9.198;2023-10-13T14:32:35;24.90;62.30
8595;DHT22;4335;48.860;9.198;2023-10-13T14:35:10;24.70;63.50
8595;DHT22;4335;48.860;9.198;2023-10-13T14:37:40;24.80;62.10
8595;DHT22;4335;48.860;9.198;2023-10-13T14:40:11;24.70;63.70
8595;DHT22;4335;48.860;9.198;2023-10-13T14:42:38;24.80;61.50
8595;DHT22;4335;48.860;9.198;2023-10-13T14:45:10;24.70;62.70
8595;DHT22;4335;48.860;9.198;2023-10-13T14:47:38;24.70;62.50
8595;DHT22;4335;48.860;9.198;2023-10-13T14:50:06;24.70;61.60
8595;DHT22;4335;48.860;9.198;2023-10-13T14:52:40;24.80;62.50
8595;DHT22;4335;48.860;9.198;2023-10-13T14:55:08;24.70;62.20
8595;DHT22;4335;48.860;9.198;2023-10-13T14:57:45;24.60;62.50
8595;DHT22;4335;48.860;9.198;2023-10-13T15:00:19;24.60;62.80
8595;DHT22;4335;48.860;9.198;2023-10-13T15:02:51;24.60;62.30
8595;DHT22;4335;48.860;9.198;2023-10-13T15:05:21;24.70;61.90
8595;DHT22;4335;48.860;9.198;2023-10-13T15:07:55;24.70;63.30
8595;DHT22;4335;48.860;9.198;2023-10-13T15:10:21;24.70;62.00
8595;DHT22;4335;48.860;9.198;2023-10-13T15:12:53;24.70;60.90
8595;DHT22;4335;48.860;9.198;2023-10-13T15:15:20;24.60;61.90
8595;DHT22;4335;48.860;9.198;2023-10-13T15:17:50;24.60;60.00
8595;DHT22;4335;48.860;9.198;2023-10-13T15:20:19;24.60;60.50
8595;DHT22;4335;48.860;9.198;2023-10-13T15:22:46;24.60;59.50
8595;DHT22;4335;48.860;9.198;2023-10-13T15:25:16;24.50;60.50
8595;DHT22;4335;48.860;9.198;2023-10-13T15:27:47;24.60;61.80
8595;DHT22;4335;48.860;9.198;2023-10-13T15:30:22;24.30;61.80
8595;DHT22;4335;48.860;9.198;2023-10-13T15:32:56;24.30;62.20
8595;DHT22;4335;48.860;9.198;2023-10-13T15:35:23;24.20;62.70
8595;DHT22;4335;48.860;9.198;2023-10-13T15:37:55;24.10;62.20
8595;DHT22;4335;48.860;9.198;2023-10-13T15:40:24;24.10;61.80
8595;DHT22;4335;48.860;9.198;2023-10-13T15:42:53;24.00;62.70
8595;DHT22;4335;48.860;9.198;2023-10-13T15:45:26;24.00;62.60
8595;DHT22;4335;48.860;9.198;2023-10-13T15:48:09;24.10;60.60
8595;DHT22;4335;48.860;9.198;2023-10-13T15:50:38;24.10;60.80
8595;DHT22;4335;48.860;9.198;2023-10-13T15:53:05;24.00;61.60
8595;DHT22;4335;48.860;9.198;2023-10-13T15:55:35;23.90;60.30
8595;DHT22;4335;48.860;9.198;2023-10-13T15:58:03;23.90;60.80
8595;DHT22;4335;48.860;9.198;2023-10-13T16:00:34;23.80;60.20
8595;DHT22;4335;48.860;9.198;2023-10-13T16:03:07;23.90;60.40
8595;DHT22;4335;48.860;9.198;2023-10-13T16:05:38;23.80;60.00
8595;DHT22;4335;48.860;9.198;2023-10-13T16:08:10;23.70;60.70
8595;DHT22;4335;48.860;9.198;2023-10-13T16:10:38;23.70;60.00
8595;DHT22;4335;48.860;9.198;2023-10-13T16:13:08;23.60;60.90
8595;DHT22;4335;48.860;9.198;2023-10-13T16:15:41;23.50;60.60
8595;DHT22;4335;48.860;9.198;2023-10-13T16:18:11;23.50;60.10
8595;DHT22;4335;48.860;9.198;2023-10-13T16:20:38;23.40;61.20
8595;DHT22;4335;48.860;9.198;2023-10-13T16:23:15;23.30;61.30
8595;DHT22;4335;48.860;9.198;2023-10-13T16:25:42;23.20;61.80
8595;DHT22;4335;48.860;9.198;2023-10-13T16:28:09;23.10;62.20
8595;DHT22;4335;48.860;9.198;2023-10-13T16:30:40;23.10;60.40
8595;DHT22;4335;48.860;9.198;2023-10-13T16:33:07;23.10;59.50
8595;DHT22;4335;48.860;9.198;2023-10-13T16:35:37;23.10;60.00
8595;DHT22;4335;48.860;9.198;2023-10-13T16:38:11;23.00;61.50
8595;DHT22;4335;48.860;9.198;2023-10-13T16:40:41;22.90;61.00
8595;DHT22;4335;48.860;9.198;2023-10-13T16:43:07;22.90;60.60
8595;DHT22;4335;48.860;9.198;2023-10-13T16:45:35;22.90;60.70
8595;DHT22;4335;48.860;9.198;2023-10-13T16:48:04;22.90;60.30
8595;DHT22;4335;48.860;9.198;2023-10-13T16:50:32;22.80;60.30
8595;DHT22;4335;48.860;9.198;2023-10-13T16:53:03;22.80;61.10